Time;durP1;ratioP1;P1;durP2;ratioP2;P2;SDS_P1;SDS_P2;PMS_P1;PMS_P2;Temp;Humidity;BMP_temperature;BMP_pressure;BME280_temperature;BME280_humidity;BME280_pressure;Samples;Min_cycle;Max_cycle;Signal;HPM_P1;HPM_P2
2023/06/25 00:00:54;;;;;;;7.27;6.57;;;12.70;99.90;;;;;;8268176;28;20269;-65
2023/06/25 00:04:55;;;;;;;8.53;6.50;;;12.60;1.00;;;;;;8274083;28;20194;-65
2023/06/25 00:08:56;;;;;;;6.97;6.27;;;12.60;95.20;;;;;;8279412;28;20210;-65
2023/06/25 00:12:57;;;;;;;7.23;6.53;;;12.50;99.90;;;;;;8269900;28;20270;-66
2023/06/25 00:16:59;;;;;;;8.13;6.80;;;12.50;1.00;;;;;;8264352;28;20187;-66
2023/06/25 00:21:05;;;;;;;7.63;6.93;;;12.40;1.00;;;;;;8273281;28;20204;-65
2023/06/25 00:25:06;;;;;;;7.70;6.47;;;12.40;99.90;;;;;;8264265;28;20230;-66
2023/06/25 00:29:07;;;;;;;7.80;7.00;;;12.40;99.90;;;;;;8264584;28;20306;-68
2023/06/25 00:33:14;;;;;;;6.87;6.27;;;12.30;99.90;;;;;;8270080;28;20184;-66
2023/06/25 00:37:18;;;;;;;7.53;6.73;;;12.30;99.90;;;;;;8276669;28;20180;-68
2023/06/25 00:41:19;;;;;;;7.63;6.83;;;12.30;99.90;;;;;;8269202;28;20222;-67
2023/06/25 00:45:21;;;;;;;7.63;6.83;;;12.20;99.90;;;;;;8270323;28;20187;-66
2023/06/25 00:49:22;;;;;;;7.73;6.77;;;12.20;99.90;;;;;;8270541;28;20199;-67
2023/06/25 00:53:36;;;;;;;7.10;6.43;;;12.20;99.90;;;;;;8268835;28;20223;-64
2023/06/25 00:57:37;;;;;;;7.03;6.33;;;12.20;99.90;;;;;;8269371;28;20195;-65
2023/06/25 01:01:48;;;;;;;8.03;7.23;;;12.10;99.90;;;;;;8268394;28;20215;-65
2023/06/25 01:05:53;;;;;;;7.27;6.40;;;12.10;99.90;;;;;;8270074;28;20226;-67
2023/06/25 01:09:56;;;;;;;9.73;8.13;;;12.10;99.90;;;;;;8267904;28;20194;-65
2023/06/25 01:13:57;;;;;;;9.17;8.17;;;12.10;99.90;;;;;;8275906;28;20196;-64
2023/06/25 01:18:00;;;;;;;8.27;7.47;;;12.10;99.90;;;;;;8268538;28;20188;-67
2023/06/25 01:22:03;;;;;;;8.83;7.93;;;12.10;99.90;;;;;;8270920;28;20207;-66
2023/06/25 01:26:04;;;;;;;8.50;7.70;;;12.00;99.90;;;;;;8266248;28;20197;-66
2023/06/25 01:30:07;;;;;;;8.40;7.60;;;12.00;99.90;;;;;;8265726;28;20189;-66
2023/06/25 01:34:09;;;;;;;8.20;7.40;;;12.00;99.90;;;;;;8267250;28;20203;-67
2023/06/25 01:38:10;;;;;;;9.10;8.00;;;11.90;99.90;;;;;;8267212;28;20277;-65
2023/06/25 01:42:11;;;;;;;9.47;8.37;;;11.90;99.90;;;;;;8269960;28;20237;-67
2023/06/25 01:46:12;;;;;;;10.10;8.67;;;11.90;99.90;;;;;;8267279;28;20222;-66
2023/06/25 01:50:13;;;;;;;8.93;8.10;;;11.90;99.90;;;;;;8273692;28;20194;-66
2023/06/25 01:54:14;;;;;;;9.60;8.43;;;12.00;99.90;;;;;;8270450;28;20194;-67
2023/06/25 01:58:15;;;;;;;10.43;9.40;;;12.00;99.90;;;;;;8267061;28;20269;-66
2023/06/25 02:02:16;;;;;;;10.17;9.13;;;12.00;99.90;;;;;;8269239;28;20287;-66
2023/06/25 02:06:17;;;;;;;10.43;9.43;;;12.10;99.90;;;;;;8267634;28;20234;-66
2023/06/25 02:10:18;;;;;;;9.77;8.77;;;12.10;99.90;;;;;;8263814;28;20187;-66
2023/06/25 02:14:21;;;;;;;9.37;8.37;;;12.00;99.90;;;;;;8274991;28;20197;-67
2023/06/25 02:18:22;;;;;;;9.33;8.40;;;12.00;99.90;;;;;;8266725;28;20198;-67
2023/06/25 02:22:26;;;;;;;10.20;9.13;;;12.00;99.90;;;;;;8262815;28;20220;-66
2023/06/25 02:26:30;;;;;;;10.23;9.00;;;12.00;99.90;;;;;;8268330;28;20222;-66
2023/06/25 02:30:31;;;;;;;11.50;9.43;;;12.00;99.90;;;;;;8282406;28;20222;-66
2023/06/25 02:34:32;;;;;;;10.77;9.77;;;12.10;99.90;;;;;;8277740;28;20195;-66
2023/06/25 02:38:33;;;;;;;12.93;10.37;;;12.10;99.90;;;;;;8272035;28;20195;-66
2023/06/25 02:42:34;;;;;;;12.47;10.93;;;12.20;99.90;;;;;;8265121;28;20269;-66
2023/06/25 02:46:36;;;;;;;11.93;10.83;;;12.20;99.90;;;;;;8264424;28;20194;-67
2023/06/25 02:50:37;;;;;;;11.37;10.23;;;12.30;99.90;;;;;;8269282;28;20240;-68
2023/06/25 02:54:41;;;;;;;11.50;10.27;;;12.30;99.90;;;;;;8266590;28;20184;-68
2023/06/25 02:58:42;;;;;;;11.07;9.87;;;12.40;99.90;;;;;;8264913;28;20188;-68
2023/06/25 03:02:43;;;;;;;10.23;8.63;;;12.40;99.90;;;;;;8265583;28;20369;-68
2023/06/25 03:06:44;;;;;;;8.50;7.63;;;12.40;99.90;;;;;;8267139;28;20186;-68
2023/06/25 03:10:45;;;;;;;9.57;7.93;;;12.40;99.90;;;;;;8280356;28;20205;-68
2023/06/25 03:14:46;;;;;;;9.23;8.23;;;12.50;99.90;;;;;;8260439;28;20195;-69
2023/06/25 03:18:47;;;;;;;10.63;8.97;;;13.10;99.90;;;;;;8265487;28;20202;-69
2023/06/25 03:22:49;;;;;;;10.67;9.57;;;13.90;99.90;;;;;;8265309;28;20211;-67
2023/06/25 03:26:50;;;;;;;10.87;9.57;;;14.80;99.90;;;;;;8266342;28;20199;-68
2023/06/25 03:30:51;;;;;;;10.13;8.80;;;15.80;99.90;;;;;;8261555;28;20183;-69
2023/06/25 03:34:52;;;;;;;8.67;7.80;;;16.70;99.90;;;;;;8261179;28;20302;-68
2023/06/25 03:38:53;;;;;;;9.10;7.20;;;17.60;99.90;;;;;;8265870;28;20187;-69
2023/06/25 03:42:54;;;;;;;7.63;6.60;;;18.40;99.90;;;;;;8262511;28;20269;-69
2023/06/25 03:46:55;;;;;;;6.07;5.47;;;19.20;1.00;;;;;;8265199;28;20179;-69
2023/06/25 03:50:56;;;;;;;7.13;5.73;;;19.80;1.00;;;;;;8264972;28;20191;-69
2023/06/25 03:54:57;;;;;;;5.60;5.10;;;20.50;1.00;;;;;;8274592;28;20183;-68
2023/06/25 03:58:58;;;;;;;6.10;5.50;;;21.10;1.00;;;;;;8283174;28;20187;-69
2023/06/25 04:02:59;;;;;;;6.00;5.40;;;21.70;1.00;;;;;;8265843;28;20218;-68
2023/06/25 04:07:00;;;;;;;5.90;5.30;;;22.30;1.00;;;;;;8266561;28;20176;-68
2023/06/25 04:11:02;;;;;;;6.97;6.07;;;22.80;1.00;;;;;;8267844;28;20192;-68
2023/06/25 04:15:04;;;;;;;6.83;6.00;;;23.30;1.00;;;;;;8282443;28;20304;-68
2023/06/25 04:19:05;;;;;;;8.83;6.13;;;23.70;1.00;;;;;;8269239;28;20219;-69
2023/06/25 04:23:11;;;;;;;9.20;5.90;;;24.10;99.90;;;;;;8268581;28;20183;-69
2023/06/25 04:27:12;;;;;;;6.47;5.83;;;24.60;99.90;;;;;;8268708;28;20188;-70
2023/06/25 04:31:13;;;;;;;8.00;7.23;;;25.00;99.90;;;;;;8269797;28;20265;-70
2023/06/25 04:35:14;;;;;;;8.27;6.77;;;24.70;99.90;;;;;;8265309;28;20196;-70
2023/06/25 04:39:15;;;;;;;6.40;5.70;;;24.60;99.90;;;;;;8270166;28;20183;-70
2023/06/25 04:43:16;;;;;;;7.40;5.93;;;24.70;99.90;;;;;;8266552;28;20201;-69
2023/06/25 04:47:17;;;;;;;7.30;6.15;;;25.30;99.90;;;;;;8265207;28;20239;-70
2023/06/25 04:51:18;;;;;;;6.50;5.90;;;25.60;99.90;;;;;;8268695;28;20286;-69
2023/06/25 04:55:19;;;;;;;7.03;5.25;;;25.90;99.90;;;;;;8268601;28;20186;-70
2023/06/25 04:59:20;;;;;;;7.88;6.60;;;26.00;99.90;;;;;;8264005;28;20202;-70
2023/06/25 05:03:21;;;;;;;6.80;6.10;;;25.90;99.90;;;;;;8269173;28;20215;-69
2023/06/25 05:07:22;;;;;;;7.78;5.90;;;25.30;99.90;;;;;;8268770;28;20188;-70
2023/06/25 05:11:23;;;;;;;6.95;6.25;;;24.50;99.90;;;;;;8279109;28;20187;-69
2023/06/25 05:15:24;;;;;;;8.00;5.82;;;23.70;99.90;;;;;;8266451;28;20274;-70
2023/06/25 05:19:25;;;;;;;7.45;6.72;;;22.80;99.90;;;;;;8270211;28;20211;-70
2023/06/25 05:23:26;;;;;;;10.03;6.43;;;22.20;99.90;;;;;;8265411;28;20179;-69
2023/06/25 05:27:27;;;;;;;7.23;6.27;;;21.80;1.00;;;;;;8268824;28;20187;-68
2023/06/25 05:31:28;;;;;;;7.27;6.60;;;21.60;1.00;;;;;;8264052;28;20209;-69
2023/06/25 05:35:29;;;;;;;8.00;6.97;;;21.40;1.00;;;;;;8265463;28;20179;-69
2023/06/25 05:39:34;;;;;;;7.97;7.23;;;21.10;1.00;;;;;;8263926;28;20215;-69
2023/06/25 05:43:35;;;;;;;9.37;7.20;;;21.00;1.00;;;;;;8267826;28;20183;-69
2023/06/25 05:47:36;;;;;;;10.97;7.23;;;21.00;1.00;;;;;;8268206;28;20276;-69
2023/06/25 05:51:36;;;;;;;8.37;7.10;;;21.10;1.00;;;;;;8264517;28;20195;-69
2023/06/25 05:55:37;;;;;;;10.60;6.33;;;21.20;1.00;;;;;;8267746;28;20191;-68
2023/06/25 05:59:38;;;;;;;7.77;6.53;;;21.30;1.00;;;;;;8265337;28;20211;-69
2023/06/25 06:03:39;;;;;;;7.43;6.40;;;21.40;1.00;;;;;;8272708;28;20241;-68
2023/06/25 06:07:40;;;;;;;10.83;7.00;;;21.40;1.00;;;;;;8266551;28;20183;-68
2023/06/25 06:11:43;;;;;;;10.40;6.70;;;21.60;1.00;;;;;;8264922;28;20231;-67
2023/06/25 06:15:45;;;;;;;6.73;6.03;;;21.70;1.00;;;;;;8264322;28;20198;-68
2023/06/25 06:19:46;;;;;;;7.03;6.33;;;22.30;1.00;;;;;;8266270;28;20215;-68
2023/06/25 06:23:51;;;;;;;8.10;6.73;;;23.20;1.00;;;;;;8268747;28;20178;-68
2023/06/25 06:27:54;;;;;;;6.53;5.83;;;23.70;99.90;;;;;;8271844;28;20191;-68
2023/06/25 06:31:55;;;;;;;8.40;6.77;;;23.80;99.90;;;;;;8263785;28;20191;-68
2023/06/25 06:35:56;;;;;;;8.67;5.90;;;23.20;99.90;;;;;;8266318;28;20187;-68
2023/06/25 06:39:57;;;;;;;7.20;6.43;;;22.70;99.90;;;;;;8279083;28;20214;-68
2023/06/25 06:44:11;;;;;;;7.03;6.33;;;22.70;99.90;;;;;;8264876;28;20191;-67
2023/06/25 06:48:12;;;;;;;8.87;6.30;;;22.80;99.90;;;;;;8263597;28;20183;-68
2023/06/25 06:52:15;;;;;;;9.53;6.60;;;22.90;99.90;;;;;;8261823;28;20313;-68
2023/06/25 06:56:16;;;;;;;6.77;5.87;;;22.60;99.90;;;;;;8266979;28;20299;-68
2023/06/25 07:00:18;;;;;;;7.13;6.23;;;22.60;99.90;;;;;;8264414;28;20207;-68
2023/06/25 07:04:19;;;;;;;6.93;6.23;;;22.70;99.90;;;;;;8264820;28;20204;-68
2023/06/25 07:08:21;;;;;;;7.80;5.90;;;22.80;99.90;;;;;;8267194;28;20188;-68
2023/06/25 07:12:22;;;;;;;8.93;6.43;;;22.90;99.90;;;;;;8264780;28;20211;-68
2023/06/25 07:16:23;;;;;;;14.50;12.33;;;22.80;99.90;;;;;;8264962;28;20198;-68
2023/06/25 07:20:24;;;;;;;9.50;6.73;;;23.30;99.90;;;;;;8263078;28;20207;-68
2023/06/25 07:24:25;;;;;;;9.00;7.63;;;23.40;99.90;;;;;;8266049;28;20190;-69
2023/06/25 07:28:26;;;;;;;7.53;6.73;;;24.00;99.90;;;;;;8273486;28;20179;-68
2023/06/25 07:32:27;;;;;;;7.37;6.10;;;24.20;99.90;;;;;;8269706;28;20186;-68
2023/06/25 07:36:28;;;;;;;5.67;5.07;;;24.20;99.90;;;;;;8272847;28;20184;-68
2023/06/25 07:40:29;;;;;;;5.30;4.80;;;24.00;99.90;;;;;;8268563;28;20218;-68
2023/06/25 07:44:30;;;;;;;7.90;5.63;;;24.00;99.90;;;;;;8269728;28;20222;-68
2023/06/25 07:48:31;;;;;;;5.87;5.27;;;23.40;99.90;;;;;;8268992;28;20180;-67
2023/06/25 07:52:32;;;;;;;6.27;4.80;;;23.10;99.90;;;;;;8268866;28;20196;-68
2023/06/25 07:56:34;;;;;;;9.50;5.30;;;23.20;99.90;;;;;;8274356;28;20278;-69
2023/06/25 08:00:35;;;;;;;7.43;5.53;;;23.20;99.90;;;;;;8253503;28;20219;-68
2023/06/25 08:04:36;;;;;;;6.00;5.40;;;23.30;99.90;;;;;;8265075;28;20213;-69
2023/06/25 08:08:37;;;;;;;6.07;5.27;;;23.20;99.90;;;;;;8267699;28;20183;-68
2023/06/25 08:12:38;;;;;;;7.43;5.73;;;23.10;99.90;;;;;;8269165;28;20195;-69
2023/06/25 08:16:39;;;;;;;5.93;5.20;;;23.00;99.90;;;;;;8266805;28;20230;-69
2023/06/25 08:20:40;;;;;;;5.20;4.50;;;22.70;99.90;;;;;;8267805;28;20257;-68
2023/06/25 08:24:41;;;;;;;5.37;4.87;;;22.30;99.90;;;;;;8268623;28;20206;-67
2023/06/25 08:28:42;;;;;;;7.13;4.03;;;22.00;99.90;;;;;;8277001;28;20227;-66
2023/06/25 08:32:49;;;;;;;5.97;3.63;;;21.90;99.90;;;;;;8268752;28;20194;-67
2023/06/25 08:36:50;;;;;;;4.40;3.63;;;21.80;99.90;;;;;;8270134;28;20198;-67
2023/06/25 08:40:56;;;;;;;4.50;3.83;;;21.60;99.90;;;;;;8269537;28;20218;-67
2023/06/25 08:44:57;;;;;;;5.60;3.80;;;21.70;99.90;;;;;;8267118;28;20214;-67
2023/06/25 08:49:00;;;;;;;4.13;3.73;;;21.70;99.90;;;;;;8266903;28;20194;-67
2023/06/25 08:53:02;;;;;;;5.07;4.17;;;21.70;99.90;;;;;;8270327;28;20185;-67
2023/06/25 08:57:03;;;;;;;4.80;4.27;;;22.00;99.90;;;;;;8264444;28;20242;-67
2023/06/25 09:01:04;;;;;;;5.40;4.27;;;22.20;99.90;;;;;;8267494;28;20208;-68
2023/06/25 09:05:13;;;;;;;5.10;4.60;;;22.50;99.90;;;;;;8265644;28;20214;-67
2023/06/25 09:09:14;;;;;;;5.20;4.70;;;22.40;99.90;;;;;;8268830;28;20191;-67
2023/06/25 09:13:24;;;;;;;5.17;4.20;;;22.40;99.90;;;;;;8268851;28;20187;-67
2023/06/25 09:17:25;;;;;;;5.97;4.80;;;22.30;99.90;;;;;;8270351;28;20188;-68
2023/06/25 09:21:36;;;;;;;6.33;5.03;;;22.40;99.90;;;;;;8265449;28;20217;-67
2023/06/25 09:25:37;;;;;;;5.97;5.13;;;22.80;99.90;;;;;;8266763;28;20188;-67
2023/06/25 09:29:39;;;;;;;6.03;5.43;;;23.00;99.90;;;;;;8284387;28;20198;-67
2023/06/25 09:33:40;;;;;;;6.50;5.07;;;23.60;99.90;;;;;;8265388;28;20233;-67
2023/06/25 09:37:41;;;;;;;5.77;4.23;;;23.70;99.90;;;;;;8266681;28;20191;-67
2023/06/25 09:41:43;;;;;;;6.37;4.67;;;23.80;99.90;;;;;;8272249;28;20206;-67
2023/06/25 09:45:45;;;;;;;5.97;4.30;;;24.00;99.90;;;;;;8262040;28;20192;-67
2023/06/25 09:49:47;;;;;;;4.60;4.20;;;24.10;99.90;;;;;;8263473;28;20183;-68
2023/06/25 09:53:52;;;;;;;4.38;3.90;;;24.50;99.90;;;;;;8271090;28;20222;-67
2023/06/25 09:58:11;;;;;;;5.00;4.00;;;24.90;99.90;;;;;;8267112;28;20206;-68
2023/06/25 10:02:15;;;;;;;6.75;4.10;;;24.90;99.90;;;;;;8278081;28;20287;-68
2023/06/25 10:06:16;;;;;;;4.22;3.67;;;25.00;99.90;;;;;;8271937;28;20229;-68
2023/06/25 10:10:29;;;;;;;4.43;3.42;;;24.70;99.90;;;;;;8262955;28;20319;-68
2023/06/25 10:14:40;;;;;;;4.35;3.40;;;24.60;99.90;;;;;;8270047;28;20198;-67
2023/06/25 10:18:46;;;;;;;4.07;3.30;;;24.90;99.90;;;;;;8261258;28;20191;-69
2023/06/25 10:22:47;;;;;;;4.00;3.42;;;25.10;99.90;;;;;;8271604;28;20210;-69
2023/06/25 10:26:53;;;;;;;3.35;3.05;;;25.40;99.90;;;;;;8267659;28;20191;-68
2023/06/25 10:30:54;;;;;;;4.72;2.92;;;25.70;99.90;;;;;;8263668;28;20191;-67
2023/06/25 10:35:08;;;;;;;3.20;2.90;;;25.60;99.90;;;;;;8269802;28;20183;-67
2023/06/25 10:39:09;;;;;;;3.45;3.15;;;25.30;99.90;;;;;;8264151;28;20212;-68
2023/06/25 10:43:15;;;;;;;6.03;3.25;;;25.20;99.90;;;;;;8264460;28;20218;-68
2023/06/25 10:47:16;;;;;;;3.20;2.95;;;24.60;99.90;;;;;;8264689;28;20176;-68
2023/06/25 10:51:19;;;;;;;5.23;3.77;;;24.20;99.90;;;;;;8268377;28;20195;-67
2023/06/25 10:55:20;;;;;;;3.30;3.00;;;24.30;99.90;;;;;;8261452;28;20187;-68
2023/06/25 10:59:22;;;;;;;3.90;3.00;;;24.50;99.90;;;;;;8272070;28;20184;-68
2023/06/25 11:03:24;;;;;;;4.55;3.13;;;25.00;99.90;;;;;;8267964;28;20203;-67
2023/06/25 11:07:25;;;;;;;4.90;3.40;;;25.10;99.90;;;;;;8275582;28;20253;-68
2023/06/25 11:11:28;;;;;;;4.38;3.28;;;25.50;99.90;;;;;;8267663;28;20191;-67
2023/06/25 11:15:33;;;;;;;5.10;3.30;;;25.50;99.90;;;;;;8276212;28;20211;-67
2023/06/25 11:19:34;;;;;;;4.80;3.70;;;25.20;99.90;;;;;;8268748;28;20188;-67
2023/06/25 11:23:35;;;;;;;5.07;3.33;;;24.80;99.90;;;;;;8271552;28;20195;-67
2023/06/25 11:27:37;;;;;;;6.37;3.97;;;24.40;99.90;;;;;;8270973;28;20210;-68
2023/06/25 11:31:48;;;;;;;5.23;3.50;;;24.30;99.90;;;;;;8270693;28;20219;-67
2023/06/25 11:35:51;;;;;;;4.30;3.20;;;24.30;99.90;;;;;;8272586;28;20175;-68
2023/06/25 11:39:52;;;;;;;5.33;3.97;;;24.30;99.90;;;;;;8272254;28;20314;-67
2023/06/25 11:43:53;;;;;;;4.20;3.30;;;24.60;99.90;;;;;;8270991;28;20176;-68
2023/06/25 11:47:55;;;;;;;5.63;3.60;;;24.70;99.90;;;;;;8271438;28;20187;-67
2023/06/25 11:51:58;;;;;;;5.07;3.30;;;25.00;99.90;;;;;;8267727;28;20268;-67
2023/06/25 11:56:00;;;;;;;3.50;3.20;;;25.40;99.90;;;;;;8265752;28;20231;-68
2023/06/25 12:00:01;;;;;;;6.03;3.85;;;25.60;99.90;;;;;;8282287;28;20210;-66
2023/06/25 12:04:03;;;;;;;5.90;3.10;;;25.90;99.90;;;;;;8274349;28;20242;-68
2023/06/25 12:08:04;;;;;;;7.25;3.97;;;25.50;99.90;;;;;;8271939;28;20187;-67
2023/06/25 12:12:05;;;;;;;3.88;3.30;;;25.30;99.90;;;;;;8273147;28;20191;-68
2023/06/25 12:16:06;;;;;;;3.35;3.13;;;25.20;99.90;;;;;;8269692;28;20191;-67
2023/06/25 12:20:07;;;;;;;4.03;3.60;;;24.90;99.90;;;;;;8267026;28;20215;-66
2023/06/25 12:24:08;;;;;;;3.42;3.13;;;25.10;99.90;;;;;;8264595;28;20287;-68
2023/06/25 12:28:14;;;;;;;4.20;3.80;;;25.50;99.90;;;;;;8269406;28;20191;-68
2023/06/25 12:32:16;;;;;;;5.63;3.53;;;25.50;99.90;;;;;;8280885;28;20191;-68
2023/06/25 12:36:17;;;;;;;5.25;3.72;;;25.90;99.90;;;;;;8270130;28;20267;-66
2023/06/25 12:40:18;;;;;;;3.72;3.30;;;26.00;99.90;;;;;;8265369;28;20223;-68
2023/06/25 12:44:19;;;;;;;4.45;3.80;;;25.70;99.90;;;;;;8269952;28;20184;-68
2023/06/25 12:48:26;;;;;;;5.32;3.35;;;25.60;99.90;;;;;;8268506;28;20180;-67
2023/06/25 12:52:28;;;;;;;3.80;3.25;;;25.70;99.90;;;;;;8267306;28;20218;-69
2023/06/25 12:56:31;;;;;;;3.90;3.13;;;25.50;99.90;;;;;;8269624;28;20190;-67
2023/06/25 13:00:31;;;;;;;3.47;3.15;;;25.30;99.90;;;;;;8269976;28;20338;-66
2023/06/25 13:04:32;;;;;;;3.33;2.92;;;25.70;99.90;;;;;;8268757;28;20206;-67
2023/06/25 13:08:34;;;;;;;4.47;3.10;;;26.30;99.90;;;;;;8278349;28;20191;-67
2023/06/25 13:12:37;;;;;;;3.95;3.00;;;26.10;99.90;;;;;;8265852;28;20179;-69
2023/06/25 13:16:38;;;;;;;3.30;3.00;;;26.00;99.90;;;;;;8271418;28;20231;-67
2023/06/25 13:20:39;;;;;;;3.35;3.03;;;26.10;99.90;;;;;;8267399;28;20203;-67
2023/06/25 13:24:42;;;;;;;5.60;3.08;;;25.90;99.90;;;;;;8264804;28;20194;-67
2023/06/25 13:28:43;;;;;;;4.53;3.00;;;25.70;99.90;;;;;;8266760;28;20184;-69
2023/06/25 13:32:44;;;;;;;3.58;3.05;;;25.80;99.90;;;;;;8269011;28;20207;-67
2023/06/25 13:36:45;;;;;;;3.38;3.00;;;25.70;99.90;;;;;;8263647;28;20202;-68
2023/06/25 13:40:47;;;;;;;2.90;2.60;;;25.40;99.90;;;;;;8268745;28;20207;-68
2023/06/25 13:44:48;;;;;;;3.30;3.00;;;25.30;99.90;;;;;;8269671;28;20304;-67
2023/06/25 13:48:49;;;;;;;6.55;3.28;;;25.20;99.90;;;;;;8264498;28;20194;-68
2023/06/25 13:52:50;;;;;;;3.85;3.30;;;25.20;99.90;;;;;;8266580;28;20211;-68
2023/06/25 13:56:52;;;;;;;3.72;2.90;;;25.30;99.90;;;;;;8270883;28;20184;-68
2023/06/25 14:00:54;;;;;;;3.53;3.17;;;25.80;99.90;;;;;;8264754;28;20207;-69
2023/06/25 14:04:58;;;;;;;2.85;2.53;;;26.30;99.90;;;;;;8265069;28;20200;-69
2023/06/25 14:09:00;;;;;;;2.63;2.42;;;26.70;99.90;;;;;;8265821;28;20175;-68
2023/06/25 14:13:01;;;;;;;5.93;3.75;;;27.00;99.90;;;;;;8264326;28;20187;-68
2023/06/25 14:17:02;;;;;;;2.70;2.50;;;27.30;99.90;;;;;;8262819;28;20187;-68
2023/06/25 14:21:03;;;;;;;5.00;3.10;;;27.10;99.90;;;;;;8261443;28;20199;-68
2023/06/25 14:25:04;;;;;;;3.40;2.60;;;26.80;99.90;;;;;;8263677;28;20184;-68
2023/06/25 14:29:05;;;;;;;2.90;2.60;;;26.60;99.90;;;;;;8266766;28;20207;-67
2023/06/25 14:33:15;;;;;;;3.00;2.58;;;26.50;99.90;;;;;;8263206;28;20186;-67
2023/06/25 14:37:16;;;;;;;4.20;2.63;;;26.40;99.90;;;;;;8262479;28;20195;-70
2023/06/25 14:41:23;;;;;;;3.70;2.63;;;26.40;99.90;;;;;;8263020;28;20215;-69
2023/06/25 14:45:24;;;;;;;2.72;2.53;;;26.60;99.90;;;;;;8265707;28;20179;-69
2023/06/25 14:49:25;;;;;;;3.10;2.80;;;26.30;99.90;;;;;;8269519;28;20180;-70
2023/06/25 14:53:26;;;;;;;3.00;2.70;;;26.50;99.90;;;;;;8267986;28;20187;-69
2023/06/25 14:57:27;;;;;;;3.58;2.72;;;26.80;99.90;;;;;;8264027;28;20214;-68
2023/06/25 15:01:28;;;;;;;3.80;2.92;;;26.90;99.90;;;;;;8267516;28;20214;-69
2023/06/25 15:05:29;;;;;;;6.13;2.92;;;26.90;99.90;;;;;;8264757;28;20200;-69
2023/06/25 15:09:31;;;;;;;3.20;2.75;;;26.80;99.90;;;;;;8261178;28;20211;-69
2023/06/25 15:13:31;;;;;;;4.50;3.03;;;27.00;99.90;;;;;;8266842;28;20334;-69
2023/06/25 15:17:32;;;;;;;3.67;2.92;;;26.80;99.90;;;;;;8264651;28;20183;-68
2023/06/25 15:21:37;;;;;;;2.38;2.17;;;26.70;99.90;;;;;;8262781;28;20215;-68
2023/06/25 15:25:38;;;;;;;5.88;2.63;;;27.00;99.90;;;;;;8279478;28;20191;-68
2023/06/25 15:29:39;;;;;;;3.55;2.47;;;27.10;99.90;;;;;;8266769;28;20202;-66
2023/06/25 15:33:39;;;;;;;4.88;2.78;;;26.60;99.90;;;;;;8266337;28;20190;-68
2023/06/25 15:37:43;;;;;;;3.20;2.90;;;26.00;99.90;;;;;;8266496;28;20270;-69
2023/06/25 15:41:44;;;;;;;2.60;2.40;;;25.90;99.90;;;;;;8264417;28;20242;-67
2023/06/25 15:45:45;;;;;;;3.03;2.72;;;26.30;99.90;;;;;;8270830;28;20218;-68
2023/06/25 15:49:46;;;;;;;2.95;2.65;;;26.30;99.90;;;;;;8271430;28;20191;-67
2023/06/25 15:53:47;;;;;;;2.90;2.60;;;26.00;99.90;;;;;;8269262;28;20175;-68
2023/06/25 15:57:48;;;;;;;3.58;2.80;;;26.00;99.90;;;;;;8269170;28;20183;-69
2023/06/25 16:01:49;;;;;;;3.15;2.78;;;25.70;99.90;;;;;;8270322;28;20211;-67
2023/06/25 16:05:50;;;;;;;2.70;2.50;;;25.60;99.90;;;;;;8269972;28;20270;-67
2023/06/25 16:09:52;;;;;;;2.95;2.60;;;25.90;99.90;;;;;;8267552;28;20232;-67
2023/06/25 16:13:53;;;;;;;3.15;2.85;;;26.10;99.90;;;;;;8269633;28;20188;-68
2023/06/25 16:17:54;;;;;;;4.05;3.33;;;26.50;99.90;;;;;;8270088;28;20184;-70
2023/06/25 16:21:56;;;;;;;3.38;2.92;;;26.90;99.90;;;;;;8270081;28;20230;-69
2023/06/25 16:25:57;;;;;;;3.55;3.25;;;27.30;99.90;;;;;;8268616;28;20223;-69
2023/06/25 16:30:03;;;;;;;3.90;3.13;;;27.00;99.90;;;;;;8270464;28;20188;-69
2023/06/25 16:34:04;;;;;;;3.97;2.90;;;27.10;99.90;;;;;;8267661;28;20188;-69
2023/06/25 16:38:05;;;;;;;3.13;2.80;;;27.10;99.90;;;;;;8273695;28;20234;-69
2023/06/25 16:42:09;;;;;;;4.57;3.35;;;27.30;99.90;;;;;;8271395;28;20310;-69
2023/06/25 16:46:14;;;;;;;4.18;2.90;;;27.50;99.90;;;;;;8282513;28;20180;-69
2023/06/25 16:50:16;;;;;;;3.58;3.25;;;27.50;99.90;;;;;;8265951;28;20191;-68
2023/06/25 16:54:17;;;;;;;3.65;3.30;;;27.60;99.90;;;;;;8271106;28;20189;-69
2023/06/25 16:58:18;;;;;;;3.13;2.83;;;27.70;99.90;;;;;;8267918;28;20188;-68
2023/06/25 17:02:18;;;;;;;3.13;2.83;;;27.40;99.90;;;;;;8270114;28;20256;-69
2023/06/25 17:06:19;;;;;;;4.15;2.83;;;27.60;99.90;;;;;;8268723;28;20207;-68
2023/06/25 17:10:21;;;;;;;2.80;2.60;;;28.00;99.90;;;;;;8268914;28;20184;-67
2023/06/25 17:14:23;;;;;;;4.03;3.28;;;28.40;99.90;;;;;;8265610;28;20279;-67
2023/06/25 17:18:24;;;;;;;3.65;2.95;;;28.70;99.90;;;;;;8272970;28;20223;-67
2023/06/25 17:22:25;;;;;;;5.85;3.13;;;29.40;99.90;;;;;;8267002;28;20211;-70
2023/06/25 17:26:26;;;;;;;5.80;3.25;;;29.50;99.90;;;;;;8267602;28;20271;-69
2023/06/25 17:30:27;;;;;;;3.25;2.95;;;29.50;99.90;;;;;;8268069;28;20214;-70
2023/06/25 17:34:31;;;;;;;3.65;2.97;;;29.60;99.90;;;;;;8268724;28;20259;-69
2023/06/25 17:38:32;;;;;;;3.35;3.05;;;29.00;99.90;;;;;;8262694;28;20255;-69
2023/06/25 17:42:35;;;;;;;4.22;3.05;;;27.80;99.90;;;;;;8268944;28;20246;-70
2023/06/25 17:46:37;;;;;;;3.75;3.28;;;27.50;99.90;;;;;;8281133;28;20191;-70
2023/06/25 17:50:38;;;;;;;4.28;3.00;;;28.60;99.90;;;;;;8265529;28;20286;-70
2023/06/25 17:54:39;;;;;;;4.60;3.15;;;29.90;99.90;;;;;;8267684;28;20192;-69
2023/06/25 17:58:41;;;;;;;3.25;2.83;;;31.00;99.90;;;;;;8265844;28;20225;-69
2023/06/25 18:02:42;;;;;;;4.07;3.42;;;31.40;99.90;;;;;;8266117;28;20266;-69
2023/06/25 18:06:44;;;;;;;3.17;2.80;;;31.80;99.90;;;;;;8261593;28;20198;-69
2023/06/25 18:10:50;;;;;;;3.67;2.60;;;32.10;99.90;;;;;;8263614;28;20191;-70
2023/06/25 18:14:51;;;;;;;3.25;2.95;;;32.40;99.90;;;;;;8263579;28;20249;-70
2023/06/25 18:18:52;;;;;;;5.85;2.75;;;32.60;99.90;;;;;;8262640;28;20217;-69
2023/06/25 18:22:53;;;;;;;3.25;2.67;;;32.60;99.90;;;;;;8263712;28;20238;-71
2023/06/25 18:26:55;;;;;;;3.50;3.20;;;32.40;99.90;;;;;;8269581;28;20189;-72
2023/06/25 18:31:01;;;;;;;5.88;3.28;;;32.30;99.90;;;;;;8266398;28;20318;-69
2023/06/25 18:35:02;;;;;;;5.03;2.97;;;31.70;99.90;;;;;;8262604;28;20267;-69
2023/06/25 18:39:03;;;;;;;3.50;3.20;;;31.20;99.90;;;;;;8259967;28;20187;-68
2023/06/25 18:43:04;;;;;;;4.65;3.20;;;30.60;99.90;;;;;;8265218;28;20211;-69
2023/06/25 18:47:06;;;;;;;3.40;3.10;;;29.70;99.90;;;;;;8265101;28;20206;-68
2023/06/25 18:51:07;;;;;;;3.85;3.08;;;28.50;99.90;;;;;;8266821;28;20231;-69
2023/06/25 18:55:09;;;;;;;4.13;3.72;;;27.20;99.90;;;;;;8263721;28;20183;-68
2023/06/25 18:59:10;;;;;;;4.75;3.58;;;26.00;99.90;;;;;;8267673;28;20195;-67
2023/06/25 19:03:11;;;;;;;4.20;3.80;;;24.90;99.90;;;;;;8267957;28;20211;-66
2023/06/25 19:07:12;;;;;;;3.87;3.57;;;24.10;99.90;;;;;;8261434;28;20180;-68
2023/06/25 19:11:13;;;;;;;4.57;4.17;;;23.40;99.90;;;;;;8263314;28;20198;-68
2023/06/25 19:15:15;;;;;;;4.60;4.20;;;22.80;1.00;;;;;;8268000;28;20217;-67
2023/06/25 19:19:17;;;;;;;6.37;4.40;;;22.30;1.00;;;;;;8263554;28;20191;-66
2023/06/25 19:23:18;;;;;;;4.83;4.43;;;21.90;1.00;;;;;;8268794;28;20253;-66
2023/06/25 19:27:19;;;;;;;6.40;4.67;;;21.60;1.00;;;;;;8285118;28;20233;-68
2023/06/25 19:31:20;;;;;;;5.00;4.60;;;21.30;1.00;;;;;;8283872;28;20211;-67
2023/06/25 19:35:21;;;;;;;5.63;4.47;;;21.00;1.00;;;;;;8270887;28;20194;-67
2023/06/25 19:39:22;;;;;;;5.03;4.17;;;20.70;1.00;;;;;;8271175;28;20176;-67
2023/06/25 19:43:23;;;;;;;4.93;4.53;;;20.40;1.00;;;;;;8274187;28;20212;-65
2023/06/25 19:47:25;;;;;;;5.10;4.60;;;20.20;1.00;;;;;;8272994;28;20180;-67
2023/06/25 19:51:26;;;;;;;5.83;4.93;;;20.00;1.00;;;;;;8272195;28;20199;-67
2023/06/25 19:55:27;;;;;;;5.63;5.13;;;19.90;1.00;;;;;;8274984;28;20191;-65
2023/06/25 19:59:28;;;;;;;5.57;5.07;;;19.70;1.00;;;;;;8271590;28;20330;-65
2023/06/25 20:03:29;;;;;;;6.00;5.00;;;19.60;1.00;;;;;;8267303;28;20229;-66
2023/06/25 20:07:30;;;;;;;5.37;4.87;;;19.40;1.00;;;;;;8269087;28;20250;-66
2023/06/25 20:11:31;;;;;;;6.23;5.63;;;19.20;1.00;;;;;;8270676;28;20230;-67
2023/06/25 20:15:32;;;;;;;6.47;5.20;;;19.00;1.00;;;;;;8274562;28;20183;-66
2023/06/25 20:19:33;;;;;;;5.80;4.93;;;18.90;1.00;;;;;;8273264;28;20191;-66
2023/06/25 20:23:34;;;;;;;5.30;4.83;;;18.80;1.00;;;;;;8276264;28;20297;-66
2023/06/25 20:27:35;;;;;;;6.07;5.47;;;18.70;12.30;;;;;;8272552;28;20191;-65
2023/06/25 20:31:36;;;;;;;6.20;5.60;;;18.60;26.40;;;;;;8268814;28;20198;-66
2023/06/25 20:35:37;;;;;;;5.60;5.10;;;18.60;44.20;;;;;;8266522;28;20189;-64
2023/06/25 20:39:38;;;;;;;5.10;4.60;;;18.50;66.90;;;;;;8270384;28;20195;-64
2023/06/25 20:43:39;;;;;;;5.40;4.93;;;18.40;91.50;;;;;;8273053;28;20241;-65
2023/06/25 20:47:41;;;;;;;6.00;5.40;;;18.30;99.90;;;;;;8268463;28;20183;-64
2023/06/25 20:51:42;;;;;;;5.67;5.10;;;18.20;99.90;;;;;;8267532;28;20237;-64
2023/06/25 20:55:43;;;;;;;4.73;4.33;;;18.10;99.90;;;;;;8264880;28;20227;-64
2023/06/25 20:59:44;;;;;;;6.20;5.70;;;18.00;99.90;;;;;;8268568;28;20191;-66